createdAt,value
2023-03-06T00:01:32.868Z,19.67
2023-03-06T00:04:04.891Z,22.23
2023-03-06T00:06:37.365Z,18.63
2023-03-06T00:09:10.510Z,22.08
2023-03-06T00:11:42.973Z,19.83
2023-03-06T00:14:16.480Z,21.90
2023-03-06T00:16:48.947Z,20.40
2023-03-06T00:19:20.838Z,20.80
2023-03-06T00:21:53.721Z,21.63
2023-03-06T00:24:25.699Z,20.45
2023-03-06T00:26:58.187Z,20.15
2023-03-06T00:29:30.195Z,19.03
2023-03-06T00:32:02.856Z,20.73
2023-03-06T00:34:34.815Z,20.90
2023-03-06T00:37:07.447Z,21.67
2023-03-06T00:39:39.419Z,23.73
2023-03-06T00:42:12.214Z,23.53
2023-03-06T00:44:44.306Z,22.15
2023-03-06T00:47:19.731Z,20.27
2023-03-06T00:49:51.694Z,22.90
2023-03-06T00:52:24.472Z,20.45
2023-03-06T00:54:56.661Z,17.93
2023-03-06T00:57:29.015Z,18.88
2023-03-06T01:00:03.351Z,19.58
2023-03-06T01:02:35.747Z,21.77
2023-03-06T01:05:08.592Z,21.48
2023-03-06T01:07:43.284Z,22.17
2023-03-06T01:10:15.169Z,24.55
2023-03-06T01:12:47.608Z,22.48
2023-03-06T01:15:20.323Z,26.10
2023-03-06T01:17:54.687Z,22.38
2023-03-06T01:20:27.282Z,20.07
2023-03-06T01:22:59.691Z,18.80
2023-03-06T01:25:33.293Z,19.75
2023-03-06T01:28:05.674Z,25.27
2023-03-06T01:30:37.525Z,19.77
2023-03-06T01:33:09.930Z,21.97
2023-03-06T01:35:41.875Z,22.23
2023-03-06T01:38:15.114Z,22.95
2023-03-06T01:40:47.186Z,21.55
2023-03-06T01:43:28.616Z,22.23
2023-03-06T01:46:28.383Z,23.50
2023-03-06T01:49:26.830Z,22.42
2023-03-06T01:52:05.643Z,21.27
2023-03-06T01:54:47.537Z,22.77
2023-03-06T01:57:44.465Z,21.17
2023-03-06T02:00:21.559Z,23.23
2023-03-06T02:03:11.479Z,21.52
2023-03-06T02:05:46.931Z,23.05
2023-03-06T02:08:22.516Z,21.67
2023-03-06T02:11:16.248Z,22.42
2023-03-06T02:13:49.842Z,20.97
2023-03-06T02:16:29.181Z,20.70
2023-03-06T02:19:02.360Z,26.83
2023-03-06T02:21:37.603Z,23.75
2023-03-06T02:24:37.734Z,26.38
2023-03-06T02:27:14.481Z,21.97
2023-03-06T02:29:48.041Z,23.70
2023-03-06T02:32:20.126Z,25.20
2023-03-06T02:34:56.931Z,28.92
2023-03-06T02:37:29.561Z,25.05
2023-03-06T02:40:24.640Z,25.00
2023-03-06T02:42:58.553Z,24.30
2023-03-06T02:45:38.572Z,23.52
2023-03-06T02:48:13.261Z,23.02
2023-03-06T02:50:49.494Z,25.20
2023-03-06T02:53:22.696Z,23.87
2023-03-06T02:55:55.034Z,23.13
2023-03-06T02:58:27.906Z,23.70
2023-03-06T03:01:00.390Z,23.98
2023-03-06T03:03:51.010Z,22.65
2023-03-06T03:09:19.401Z,20.55
2023-03-06T03:11:52.418Z,24.55
2023-03-06T03:14:25.176Z,25.35
2023-03-06T03:16:58.372Z,24.20
2023-03-06T03:19:32.962Z,27.83
2023-03-06T03:22:05.053Z,24.10
2023-03-06T03:24:38.008Z,23.35
2023-03-06T03:27:10.986Z,22.75
2023-03-06T03:29:43.924Z,29.17
2023-03-06T03:32:16.026Z,25.10
2023-03-06T03:34:51.803Z,23.75
2023-03-06T03:37:24.775Z,23.05
2023-03-06T03:39:57.574Z,22.75
2023-03-06T03:42:29.594Z,25.65
2023-03-06T03:45:02.853Z,22.67
2023-03-06T03:47:35.912Z,21.58
2023-03-06T03:50:09.820Z,23.75
2023-03-06T03:52:42.916Z,22.63
2023-03-06T03:55:18.051Z,21.20
2023-03-06T03:57:50.572Z,21.43
2023-03-06T04:00:23.230Z,20.02
2023-03-06T04:03:06.635Z,21.38
2023-03-06T04:05:43.503Z,25.63
2023-03-06T04:08:18.612Z,20.90
2023-03-06T04:10:56.010Z,23.27
2023-03-06T04:13:29.403Z,23.60
2023-03-06T04:16:02.747Z,23.08
2023-03-06T04:18:40.695Z,21.23
2023-03-06T04:21:13.592Z,21.50
2023-03-06T04:23:46.127Z,24.83
2023-03-06T04:26:20.807Z,27.00
2023-03-06T04:28:53.698Z,24.63
2023-03-06T04:31:26.014Z,23.23
2023-03-06T04:34:04.086Z,26.60
2023-03-06T04:36:57.048Z,26.13
2023-03-06T04:42:44.054Z,32.25
2023-03-06T04:45:16.886Z,28.35
2023-03-06T04:47:49.225Z,33.70
2023-03-06T04:50:24.383Z,38.73
2023-03-06T04:52:56.286Z,40.35
2023-03-06T04:55:29.689Z,38.60
2023-03-06T04:58:01.575Z,39.40
2023-03-06T05:00:34.324Z,38.08
2023-03-06T05:03:06.631Z,39.33
2023-03-06T05:05:39.045Z,37.85
2023-03-06T05:08:15.272Z,35.45
2023-03-06T05:10:57.058Z,39.08
2023-03-06T05:13:29.902Z,38.55
2023-03-06T05:16:06.954Z,32.30
2023-03-06T05:18:42.591Z,37.50
2023-03-06T05:21:14.959Z,35.88
2023-03-06T05:23:47.555Z,33.28
2023-03-06T05:26:20.282Z,31.25
2023-03-06T05:28:52.607Z,35.80
2023-03-06T05:31:24.998Z,44.92
2023-03-06T05:33:59.367Z,30.83
2023-03-06T05:36:31.702Z,33.63
2023-03-06T05:39:04.276Z,38.20
2023-03-06T05:41:36.345Z,32.10
2023-03-06T05:44:09.155Z,36.75
2023-03-06T05:46:41.012Z,35.75
2023-03-06T05:49:13.980Z,34.63
2023-03-06T05:51:45.878Z,30.33
2023-03-06T05:54:18.664Z,31.90
2023-03-06T05:56:51.470Z,28.83
2023-03-06T05:59:29.225Z,32.03
2023-03-06T06:02:01.489Z,27.55
2023-03-06T06:04:35.214Z,33.17
2023-03-06T06:07:07.828Z,27.00
2023-03-06T06:09:41.061Z,27.48
2023-03-06T06:12:14.423Z,26.25
2023-03-06T06:14:47.845Z,29.27
2023-03-06T06:17:20.999Z,29.20
2023-03-06T06:19:53.346Z,32.30
2023-03-06T06:22:26.173Z,29.63
2023-03-06T06:24:58.947Z,34.80
2023-03-06T06:27:30.851Z,36.55
2023-03-06T06:30:05.603Z,38.30
2023-03-06T06:32:38.613Z,45.07
2023-03-06T06:35:12.028Z,41.50
2023-03-06T06:37:44.777Z,42.80
2023-03-06T06:40:19.755Z,45.38
2023-03-06T06:42:52.933Z,44.67
2023-03-06T06:48:18.151Z,41.50
2023-03-06T06:51:00.530Z,41.80
2023-03-06T06:53:33.309Z,41.60
2023-03-06T06:56:07.121Z,38.42
2023-03-06T06:58:39.004Z,43.60
2023-03-06T07:01:15.418Z,38.97
2023-03-06T07:03:47.984Z,43.28
2023-03-06T07:06:19.919Z,41.65
2023-03-06T07:08:56.125Z,44.78
2023-03-06T07:11:28.642Z,42.63
2023-03-06T07:14:02.439Z,41.15
2023-03-06T07:16:34.407Z,43.97
2023-03-06T07:22:21.858Z,42.53
2023-03-06T07:24:55.553Z,40.83
2023-03-06T07:27:27.482Z,41.72
2023-03-06T07:30:01.176Z,40.38
2023-03-06T07:32:33.581Z,39.13
2023-03-06T07:35:19.635Z,36.13
2023-03-06T07:37:54.039Z,36.37
2023-03-06T07:43:20.323Z,41.58
2023-03-06T07:46:01.358Z,39.28
2023-03-06T07:48:35.144Z,36.67
2023-03-06T07:54:17.335Z,33.50
2023-03-06T07:56:52.828Z,35.50
2023-03-06T08:02:24.748Z,35.40
2023-03-06T08:04:56.917Z,39.90
2023-03-06T08:07:30.553Z,35.13
2023-03-06T08:10:02.502Z,34.92
2023-03-06T08:15:30.266Z,34.08
2023-03-06T08:18:04.305Z,32.93
2023-03-06T08:20:36.678Z,34.63
2023-03-06T08:23:11.476Z,36.72
2023-03-06T08:25:43.409Z,31.45
2023-03-06T08:28:37.350Z,28.33
2023-03-06T08:31:36.440Z,32.53
2023-03-06T08:34:13.397Z,33.53
2023-03-06T08:36:45.736Z,28.67
2023-03-06T08:39:19.894Z,29.70
2023-03-06T08:44:45.197Z,27.87
2023-03-06T08:50:11.805Z,28.63
2023-03-06T08:52:47.679Z,27.50
2023-03-06T08:55:23.809Z,28.55
2023-03-06T08:57:55.680Z,31.80
2023-03-06T09:00:29.444Z,31.75
2023-03-06T09:03:01.414Z,31.23
2023-03-06T09:05:34.646Z,28.48
2023-03-06T09:08:07.707Z,28.63
2023-03-06T09:10:50.019Z,25.33
2023-03-06T09:13:22.691Z,27.85
2023-03-06T09:16:16.495Z,25.33
2023-03-06T09:19:07.218Z,23.15
2023-03-06T09:21:39.974Z,27.73
2023-03-06T09:24:12.055Z,26.60
2023-03-06T09:26:47.594Z,28.77
2023-03-06T09:29:21.270Z,25.08
2023-03-06T09:31:55.140Z,22.77
2023-03-06T09:34:27.695Z,23.80
2023-03-06T09:37:03.341Z,24.53
2023-03-06T09:39:35.737Z,20.63
2023-03-06T09:42:15.426Z,21.35
2023-03-06T09:44:54.734Z,22.52
2023-03-06T09:47:50.710Z,25.80
2023-03-06T09:50:36.094Z,19.83
2023-03-06T09:53:53.112Z,21.23
2023-03-06T09:56:32.224Z,18.65
2023-03-06T09:59:25.243Z,18.75
2023-03-06T10:02:09.161Z,22.25
2023-03-06T10:04:46.543Z,23.13
2023-03-06T10:07:24.738Z,27.17
2023-03-06T10:10:16.301Z,21.95
2023-03-06T10:13:17.941Z,25.25
2023-03-06T10:16:29.411Z,21.13
2023-03-06T10:19:16.072Z,20.08
2023-03-06T10:22:25.184Z,21.63
2023-03-06T10:25:28.352Z,20.08
2023-03-06T10:28:19.068Z,17.77
2023-03-06T10:34:24.995Z,18.30
2023-03-06T10:37:05.233Z,20.92
2023-03-06T10:39:39.236Z,20.88
2023-03-06T10:42:11.491Z,22.65
2023-03-06T10:44:43.833Z,22.38
2023-03-06T10:47:35.619Z,21.02
2023-03-06T10:50:25.695Z,19.65
2023-03-06T10:53:07.931Z,19.98
2023-03-06T10:55:40.313Z,21.15
2023-03-06T10:58:24.714Z,22.88
2023-03-06T11:01:31.131Z,19.45
2023-03-06T11:04:25.705Z,22.02
2023-03-06T11:07:24.438Z,19.90
2023-03-06T11:10:25.538Z,22.17
2023-03-06T11:13:00.691Z,21.95
2023-03-06T11:15:32.601Z,24.38
2023-03-06T11:18:09.862Z,22.42
2023-03-06T11:20:52.886Z,19.98
2023-03-06T11:23:41.655Z,18.48
2023-03-06T11:26:16.603Z,18.83
2023-03-06T11:29:38.461Z,23.67
2023-03-06T11:32:16.644Z,18.73
2023-03-06T11:34:56.379Z,18.58
2023-03-06T11:38:07.390Z,19.63
2023-03-06T11:40:57.261Z,20.33
2023-03-06T11:43:53.606Z,18.08
2023-03-06T11:46:39.822Z,17.98
2023-03-06T11:49:24.342Z,16.75
2023-03-06T11:52:00.363Z,17.85
2023-03-06T11:54:33.970Z,18.75
2023-03-06T11:57:19.099Z,18.67
2023-03-06T12:00:04.856Z,17.23
2023-03-06T12:03:03.040Z,16.60
2023-03-06T12:06:09.912Z,17.70
2023-03-06T12:09:12.822Z,14.68
2023-03-06T12:12:32.154Z,13.83
2023-03-06T12:15:03.989Z,15.98
2023-03-06T12:18:00.260Z,14.20
2023-03-06T12:21:11.596Z,16.65
2023-03-06T12:24:12.648Z,13.85
2023-03-06T12:27:09.478Z,15.40
2023-03-06T12:30:10.781Z,15.40
2023-03-06T12:33:17.889Z,15.48
2023-03-06T12:36:21.100Z,13.50
2023-03-06T12:39:08.958Z,13.13
2023-03-06T12:41:53.260Z,13.40
2023-03-06T12:44:50.322Z,14.65
2023-03-06T12:47:27.882Z,15.27
2023-03-06T12:50:08.609Z,14.18
2023-03-06T12:52:41.930Z,13.55
2023-03-06T12:55:21.171Z,11.30
2023-03-06T12:57:55.059Z,13.13
2023-03-06T13:00:34.095Z,12.63
2023-03-06T13:03:26.022Z,12.43
2023-03-06T13:06:39.200Z,12.93
2023-03-06T13:09:29.516Z,13.50
2023-03-06T13:12:18.968Z,13.38
2023-03-06T13:14:55.451Z,14.02
2023-03-06T13:17:35.284Z,15.90
2023-03-06T13:20:13.413Z,13.80
2023-03-06T13:22:47.786Z,14.37
2023-03-06T13:25:19.810Z,13.40
2023-03-06T13:27:55.404Z,14.23
2023-03-06T13:30:39.376Z,13.50
2023-03-06T13:33:31.415Z,13.02
2023-03-06T13:36:42.129Z,13.47
2023-03-06T13:39:14.715Z,13.50
2023-03-06T13:41:59.288Z,15.13
2023-03-06T13:44:31.770Z,17.90
2023-03-06T13:47:21.463Z,13.52
2023-03-06T13:49:54.079Z,12.50
2023-03-06T13:53:16.813Z,13.90
2023-03-06T13:56:21.623Z,13.38
2023-03-06T13:59:27.568Z,11.40
2023-03-06T14:02:47.339Z,15.73
2023-03-06T14:05:20.468Z,15.80
2023-03-06T14:08:12.165Z,17.48
2023-03-06T14:10:47.210Z,16.67
2023-03-06T14:13:23.963Z,19.20
2023-03-06T14:15:56.692Z,16.77
2023-03-06T14:18:44.534Z,16.60
2023-03-06T14:21:32.561Z,12.70
2023-03-06T14:24:05.889Z,12.30
2023-03-06T14:26:52.097Z,12.50
2023-03-06T14:29:27.041Z,12.15
2023-03-06T14:32:01.752Z,11.80
2023-03-06T14:34:40.534Z,14.98
2023-03-06T14:37:25.441Z,14.50
2023-03-06T14:39:58.694Z,15.27
2023-03-06T14:42:31.367Z,13.95
2023-03-06T14:45:18.680Z,14.15
2023-03-06T14:47:53.328Z,12.00
2023-03-06T14:50:33.052Z,12.93
2023-03-06T14:53:17.329Z,13.07
2023-03-06T14:55:51.643Z,13.82
2023-03-06T14:58:50.527Z,13.50
2023-03-06T15:01:41.239Z,13.45
2023-03-06T15:04:56.549Z,15.85
2023-03-06T15:07:32.989Z,13.25
2023-03-06T15:10:10.445Z,16.73
2023-03-06T15:12:42.760Z,14.77
2023-03-06T15:15:14.518Z,12.32
2023-03-06T15:17:48.342Z,17.42
2023-03-06T15:20:50.603Z,12.27
2023-03-06T15:23:34.578Z,13.27
2023-03-06T15:26:33.199Z,12.73
2023-03-06T15:29:10.055Z,12.63
2023-03-06T15:31:44.613Z,13.20
2023-03-06T15:34:23.977Z,12.98
2023-03-06T15:36:57.689Z,12.75
2023-03-06T15:39:40.224Z,15.88
2023-03-06T15:42:25.527Z,14.23
2023-03-06T15:45:03.563Z,14.48
2023-03-06T15:47:36.205Z,13.80
2023-03-06T15:50:24.710Z,15.40
2023-03-06T15:52:57.504Z,14.57
2023-03-06T15:55:29.390Z,15.10
2023-03-06T15:58:03.644Z,19.75
2023-03-06T16:00:40.819Z,16.88
2023-03-06T16:03:14.033Z,14.95
2023-03-06T16:05:46.097Z,15.37
2023-03-06T16:08:18.779Z,15.55
2023-03-06T16:10:52.454Z,17.17
2023-03-06T16:13:29.142Z,15.43
2023-03-06T16:16:01.081Z,15.80
2023-03-06T16:18:34.160Z,16.53
2023-03-06T16:21:06.698Z,17.48
2023-03-06T16:23:39.274Z,19.25
2023-03-06T16:26:31.197Z,21.13
2023-03-06T16:29:04.167Z,30.42
2023-03-06T16:31:36.033Z,19.20
2023-03-06T16:34:08.643Z,27.73
2023-03-06T16:36:40.902Z,26.83
2023-03-06T16:39:22.723Z,24.92
2023-03-06T16:41:55.626Z,20.02
2023-03-06T16:44:28.194Z,15.70
2023-03-06T16:47:01.307Z,15.82
2023-03-06T16:49:33.973Z,14.27
2023-03-06T16:52:06.269Z,13.57
2023-03-06T16:54:38.956Z,13.20
2023-03-06T16:57:15.017Z,16.17
2023-03-06T16:59:48.164Z,17.50
2023-03-06T17:02:20.084Z,14.45
2023-03-06T17:04:52.730Z,13.95
2023-03-06T17:07:25.046Z,20.80
2023-03-06T17:09:58.080Z,15.80
2023-03-06T17:12:30.540Z,16.52
2023-03-06T17:15:04.614Z,15.57
2023-03-06T17:17:39.148Z,16.60
2023-03-06T17:20:16.585Z,13.93
2023-03-06T17:22:48.920Z,16.80
2023-03-06T17:25:21.638Z,15.45
2023-03-06T17:27:53.543Z,16.13
2023-03-06T17:30:26.125Z,15.77
2023-03-06T17:32:58.453Z,16.15
2023-03-06T17:35:31.138Z,16.77
2023-03-06T17:38:03.554Z,19.65
2023-03-06T17:40:36.232Z,14.18
2023-03-06T17:43:08.194Z,15.23
2023-03-06T17:45:40.858Z,15.70
2023-03-06T17:48:13.390Z,20.60
2023-03-06T17:50:54.702Z,14.45
2023-03-06T17:53:27.422Z,15.65
2023-03-06T17:56:00.119Z,16.10
2023-03-06T17:58:32.282Z,15.23
2023-03-06T18:01:17.426Z,16.87
2023-03-06T18:03:50.928Z,17.05
2023-03-06T18:06:25.212Z,17.13
2023-03-06T18:08:57.610Z,16.33
2023-03-06T18:11:30.729Z,13.57
2023-03-06T18:14:05.386Z,15.63
2023-03-06T18:16:37.542Z,14.40
2023-03-06T18:19:11.510Z,15.63
2023-03-06T18:21:43.610Z,16.58
2023-03-06T18:24:16.204Z,16.42
2023-03-06T18:26:48.202Z,17.67
2023-03-06T18:29:21.190Z,16.30
2023-03-06T18:31:53.190Z,17.02
2023-03-06T18:34:26.380Z,20.80
2023-03-06T18:36:58.289Z,15.63
2023-03-06T18:39:32.617Z,18.73
2023-03-06T18:42:05.346Z,17.00
2023-03-06T18:44:38.105Z,16.73
2023-03-06T18:47:15.189Z,17.13
2023-03-06T18:52:40.777Z,17.30
2023-03-06T18:55:31.952Z,14.80
2023-03-06T18:58:25.085Z,15.88
2023-03-06T19:00:59.450Z,15.05
2023-03-06T19:03:34.791Z,15.75
2023-03-06T19:06:13.680Z,17.60
2023-03-06T19:08:46.038Z,15.32
2023-03-06T19:11:18.871Z,17.25
2023-03-06T19:13:50.926Z,16.15
2023-03-06T19:16:45.358Z,17.40
2023-03-06T19:19:17.343Z,15.73
2023-03-06T19:21:50.296Z,19.05
2023-03-06T19:24:26.525Z,17.80
2023-03-06T19:26:59.725Z,15.23
2023-03-06T19:29:53.580Z,16.52
2023-03-06T19:32:26.594Z,18.10
2023-03-06T19:34:59.520Z,16.27
2023-03-06T19:37:33.517Z,14.77
2023-03-06T19:40:06.722Z,16.90
2023-03-06T19:42:59.637Z,14.80
2023-03-06T19:45:31.533Z,16.43
2023-03-06T19:48:06.663Z,16.55
2023-03-06T19:50:41.943Z,17.67
2023-03-06T19:53:17.673Z,16.30
2023-03-06T19:55:49.532Z,17.42
2023-03-06T19:58:25.014Z,18.73
2023-03-06T20:01:07.798Z,18.20
2023-03-06T20:03:41.460Z,18.92
2023-03-06T20:06:18.414Z,20.15
2023-03-06T20:08:51.185Z,22.00
2023-03-06T20:11:27.084Z,19.00
2023-03-06T20:14:02.996Z,16.13
2023-03-06T20:16:39.297Z,17.30
2023-03-06T20:19:12.071Z,16.90
2023-03-06T20:21:44.971Z,17.88
2023-03-06T20:24:17.933Z,16.77
2023-03-06T20:26:51.528Z,18.30
2023-03-06T20:29:27.286Z,17.98
2023-03-06T20:32:00.507Z,19.13
2023-03-06T20:34:32.803Z,17.50
2023-03-06T20:37:10.563Z,17.47
2023-03-06T20:39:43.293Z,19.13
2023-03-06T20:42:15.762Z,17.65
2023-03-06T20:44:48.526Z,16.95
2023-03-06T20:47:21.126Z,16.27
2023-03-06T20:49:53.054Z,17.73
2023-03-06T20:52:26.811Z,16.80
2023-03-06T20:54:58.817Z,27.40
2023-03-06T20:57:31.574Z,13.07
2023-03-06T21:00:06.514Z,16.58
2023-03-06T21:02:38.788Z,18.67
2023-03-06T21:05:11.578Z,20.67
2023-03-06T21:07:43.552Z,18.90
2023-03-06T21:10:16.390Z,15.48
2023-03-06T21:12:48.706Z,17.85
2023-03-06T21:15:21.143Z,15.20
2023-03-06T21:17:53.883Z,17.00
2023-03-06T21:20:26.237Z,17.05
2023-03-06T21:22:58.095Z,19.17
2023-03-06T21:25:31.530Z,17.52
2023-03-06T21:28:03.686Z,17.40
2023-03-06T21:30:36.442Z,15.73
2023-03-06T21:33:10.682Z,16.95
2023-03-06T21:35:47.412Z,15.68
2023-03-06T21:38:19.435Z,16.95
2023-03-06T21:40:52.267Z,14.83
2023-03-06T21:43:24.551Z,14.82
2023-03-06T21:45:58.152Z,15.90
2023-03-06T21:48:31.164Z,14.77
2023-03-06T21:51:16.297Z,17.65
2023-03-06T21:53:49.102Z,18.07
2023-03-06T21:56:24.973Z,17.88
2023-03-06T21:59:19.320Z,17.58
2023-03-06T22:01:51.292Z,17.45
2023-03-06T22:04:26.602Z,18.85
2023-03-06T22:06:59.070Z,19.63
2023-03-06T22:09:31.390Z,20.15
2023-03-06T22:12:04.343Z,20.33
2023-03-06T22:14:37.378Z,16.88
2023-03-06T22:17:09.281Z,17.38
2023-03-06T22:19:42.050Z,17.53
2023-03-06T22:22:14.449Z,20.17
2023-03-06T22:24:48.837Z,19.52
2023-03-06T22:27:21.757Z,18.10
2023-03-06T22:29:54.574Z,23.95
2023-03-06T22:32:27.392Z,18.83
2023-03-06T22:34:59.302Z,20.60
2023-03-06T22:37:32.358Z,17.95
2023-03-06T22:40:04.819Z,18.42
2023-03-06T22:42:37.525Z,19.52
2023-03-06T22:45:10.672Z,20.07
2023-03-06T22:47:42.598Z,21.17
2023-03-06T22:50:15.332Z,19.77
2023-03-06T22:52:47.710Z,20.75
2023-03-06T22:55:41.897Z,19.55
2023-03-06T22:58:14.609Z,19.40
2023-03-06T23:00:46.534Z,26.25
2023-03-06T23:03:19.440Z,19.90
2023-03-06T23:06:32.774Z,17.75
2023-03-06T23:09:21.368Z,20.55
2023-03-06T23:12:12.932Z,20.23
2023-03-06T23:15:04.285Z,17.23
2023-03-06T23:17:54.602Z,17.30
2023-03-06T23:20:45.944Z,21.83
2023-03-06T23:23:38.353Z,24.60
2023-03-06T23:26:14.453Z,18.90
2023-03-06T23:28:47.287Z,19.52
2023-03-06T23:31:29.218Z,22.85
2023-03-06T23:34:03.486Z,19.90
2023-03-06T23:36:38.741Z,17.65
2023-03-06T23:39:13.268Z,17.43
2023-03-06T23:41:45.154Z,19.30
2023-03-06T23:44:17.873Z,24.10
2023-03-06T23:46:50.217Z,21.25
2023-03-06T23:49:22.976Z,21.85
2023-03-06T23:51:56.969Z,20.83
2023-03-06T23:54:29.413Z,21.65
2023-03-06T23:57:02.452Z,22.00
2023-03-06T23:59:34.400Z,21.52
